createdAt,value
2022-09-17T00:00:15.267Z,7.30
2022-09-17T00:02:47.189Z,7.35
2022-09-17T00:05:17.744Z,11.57
2022-09-17T00:07:48.094Z,8.53
2022-09-17T00:10:19.967Z,8.15
2022-09-17T00:12:51.315Z,7.47
2022-09-17T00:15:21.761Z,7.30
2022-09-17T00:17:57.849Z,7.60
2022-09-17T00:20:28.785Z,6.57
2022-09-17T00:22:59.190Z,9.27
2022-09-17T00:25:29.727Z,9.57
2022-09-17T00:28:00.119Z,5.77
2022-09-17T00:30:30.611Z,7.87
2022-09-17T00:33:01.029Z,7.80
2022-09-17T00:35:31.406Z,7.93
2022-09-17T00:38:01.893Z,8.17
2022-09-17T00:40:32.295Z,8.40
2022-09-17T00:43:02.943Z,7.08
2022-09-17T00:45:33.870Z,7.37
2022-09-17T00:48:06.914Z,6.87
2022-09-17T00:50:40.330Z,5.93
2022-09-17T00:53:20.044Z,5.53
2022-09-17T00:56:09.832Z,8.63
2022-09-17T00:58:41.465Z,5.83
2022-09-17T01:01:11.992Z,7.53
2022-09-17T01:03:42.643Z,4.70
2022-09-17T01:06:24.485Z,7.07
2022-09-17T01:09:20.622Z,7.37
2022-09-17T01:11:59.881Z,7.73
2022-09-17T01:14:48.228Z,8.27
2022-09-17T01:17:44.049Z,8.83
2022-09-17T01:20:37.079Z,6.62
2022-09-17T01:23:31.813Z,6.43
2022-09-17T01:26:23.339Z,6.73
2022-09-17T01:29:13.385Z,4.70
2022-09-17T01:31:46.941Z,6.33
2022-09-17T01:34:27.263Z,3.60
2022-09-17T01:37:19.134Z,6.80
2022-09-17T01:40:00.322Z,5.27
2022-09-17T01:42:55.056Z,5.25
2022-09-17T01:45:31.509Z,5.62
2022-09-17T01:48:20.332Z,7.60
2022-09-17T01:50:59.675Z,6.67
2022-09-17T01:53:48.333Z,11.88
2022-09-17T01:56:23.383Z,7.27
2022-09-17T01:59:05.774Z,9.40
2022-09-17T02:01:38.538Z,6.47
2022-09-17T02:04:18.042Z,7.37
2022-09-17T02:06:51.521Z,9.57
2022-09-17T02:09:44.749Z,10.48
2022-09-17T02:12:18.197Z,8.13
2022-09-17T02:14:51.823Z,10.90
2022-09-17T02:17:40.398Z,6.37
2022-09-17T02:20:12.107Z,8.07
2022-09-17T02:22:45.747Z,9.30
2022-09-17T02:25:21.985Z,7.33
2022-09-17T02:28:07.294Z,9.03
2022-09-17T02:30:37.784Z,7.15
2022-09-17T02:33:11.152Z,6.80
2022-09-17T02:35:43.493Z,4.60
2022-09-17T02:38:13.874Z,6.03
2022-09-17T02:40:50.266Z,6.50
2022-09-17T02:43:33.604Z,6.40
2022-09-17T02:46:29.471Z,10.90
2022-09-17T02:49:05.474Z,5.93
2022-09-17T02:51:41.698Z,11.57
2022-09-17T02:54:17.999Z,5.90
2022-09-17T02:56:55.460Z,6.60
2022-09-17T02:59:34.669Z,10.50
2022-09-17T03:02:10.857Z,9.40
2022-09-17T03:04:43.097Z,15.37
2022-09-17T03:07:14.990Z,11.60
2022-09-17T03:09:45.322Z,5.47
2022-09-17T03:12:15.980Z,10.98
2022-09-17T03:14:46.418Z,6.83
2022-09-17T03:17:16.817Z,6.27
2022-09-17T03:19:47.163Z,9.68
2022-09-17T03:22:17.497Z,8.47
2022-09-17T03:24:47.789Z,7.73
2022-09-17T03:27:18.341Z,7.95
2022-09-17T03:29:48.570Z,7.70
2022-09-17T03:32:18.986Z,7.67
2022-09-17T03:34:49.467Z,6.70
2022-09-17T03:37:19.845Z,8.53
2022-09-17T03:39:50.198Z,7.27
2022-09-17T03:42:20.664Z,7.17
2022-09-17T03:44:51.029Z,7.30
2022-09-17T03:47:21.412Z,7.23
2022-09-17T03:49:52.235Z,6.70
2022-09-17T03:52:22.617Z,8.10
2022-09-17T03:54:52.912Z,8.00
2022-09-17T03:57:23.474Z,10.30
2022-09-17T03:59:53.922Z,7.57
2022-09-17T04:02:24.521Z,8.07
2022-09-17T04:04:54.862Z,7.33
2022-09-17T04:07:25.181Z,9.25
2022-09-17T04:09:55.409Z,10.07
2022-09-17T04:12:25.757Z,5.10
2022-09-17T04:14:56.150Z,10.00
2022-09-17T04:17:26.585Z,11.83
2022-09-17T04:19:56.908Z,9.27
2022-09-17T04:22:27.780Z,9.87
2022-09-17T04:24:58.165Z,9.35
2022-09-17T04:27:28.597Z,10.80
2022-09-17T04:29:58.957Z,8.93
2022-09-17T04:32:29.338Z,8.10
2022-09-17T04:34:59.696Z,9.10
2022-09-17T04:37:30.148Z,9.93
2022-09-17T04:40:02.153Z,9.83
2022-09-17T04:42:32.535Z,10.73
2022-09-17T04:45:02.940Z,6.87
2022-09-17T04:47:33.326Z,6.90
2022-09-17T04:50:03.688Z,7.43
2022-09-17T04:52:34.090Z,7.05
2022-09-17T04:55:05.181Z,6.83
2022-09-17T04:57:35.562Z,6.65
2022-09-17T05:00:10.314Z,6.33
2022-09-17T05:02:40.816Z,14.60
2022-09-17T05:05:11.189Z,5.83
2022-09-17T05:07:42.207Z,9.80
2022-09-17T05:10:15.006Z,7.33
2022-09-17T05:12:57.953Z,9.33
2022-09-17T05:15:28.668Z,7.37
2022-09-17T05:17:59.082Z,7.67
2022-09-17T05:20:29.655Z,6.00
2022-09-17T05:22:59.950Z,6.63
2022-09-17T05:25:30.927Z,4.73
2022-09-17T05:28:01.305Z,8.45
2022-09-17T05:30:31.689Z,8.83
2022-09-17T05:33:03.730Z,6.60
2022-09-17T05:35:36.557Z,8.87
2022-09-17T05:38:10.418Z,7.75
2022-09-17T05:40:40.791Z,7.28
2022-09-17T05:43:11.518Z,6.12
2022-09-17T05:45:41.986Z,6.70
2022-09-17T05:48:16.496Z,8.23
2022-09-17T05:50:47.057Z,5.90
2022-09-17T05:53:17.454Z,7.33
2022-09-17T05:55:48.017Z,8.78
2022-09-17T05:58:20.486Z,7.43
2022-09-17T06:00:51.065Z,8.55
2022-09-17T06:03:23.052Z,11.30
2022-09-17T06:06:00.981Z,10.88
2022-09-17T06:08:31.750Z,9.43
2022-09-17T06:11:06.987Z,12.50
2022-09-17T06:13:37.532Z,10.27
2022-09-17T06:16:07.817Z,10.20
2022-09-17T06:18:38.418Z,10.73
2022-09-17T06:21:08.859Z,7.60
2022-09-17T06:23:39.325Z,10.77
2022-09-17T06:26:10.113Z,10.93
2022-09-17T06:28:41.974Z,18.45
2022-09-17T06:31:13.524Z,13.57
2022-09-17T06:33:44.060Z,9.80
2022-09-17T06:36:16.830Z,14.35
2022-09-17T06:38:46.856Z,12.98
2022-09-17T06:41:17.987Z,10.38
2022-09-17T06:43:48.370Z,12.75
2022-09-17T06:46:18.839Z,11.43
2022-09-17T06:48:49.647Z,10.40
2022-09-17T06:51:20.037Z,9.33
2022-09-17T06:53:50.549Z,13.93
2022-09-17T06:56:21.111Z,18.23
2022-09-17T06:58:51.622Z,10.70
2022-09-17T07:01:27.749Z,11.97
2022-09-17T07:03:57.327Z,9.98
2022-09-17T07:06:27.727Z,12.80
2022-09-17T07:08:59.254Z,10.40
2022-09-17T07:11:31.859Z,8.08
2022-09-17T07:14:02.487Z,11.03
2022-09-17T07:16:36.769Z,13.50
2022-09-17T07:19:08.977Z,8.33
2022-09-17T07:21:39.485Z,9.73
2022-09-17T07:24:09.995Z,13.72
2022-09-17T07:26:40.383Z,13.08
2022-09-17T07:29:12.459Z,7.60
2022-09-17T07:31:43.003Z,18.67
2022-09-17T07:34:13.624Z,8.50
2022-09-17T07:36:44.899Z,13.50
2022-09-17T07:39:15.379Z,10.88
2022-09-17T07:41:46.116Z,8.75
2022-09-17T07:44:18.480Z,12.43
2022-09-17T07:46:48.964Z,10.00
2022-09-17T07:49:19.845Z,9.23
2022-09-17T07:51:50.216Z,10.48
2022-09-17T07:54:20.603Z,8.38
2022-09-17T07:56:51.338Z,10.05
2022-09-17T07:59:22.006Z,11.10
2022-09-17T08:01:53.073Z,14.18
2022-09-17T08:04:23.777Z,12.07
2022-09-17T08:07:01.311Z,10.70
2022-09-17T08:09:31.619Z,10.53
2022-09-17T08:12:02.086Z,10.28
2022-09-17T08:14:32.556Z,9.25
2022-09-17T08:17:02.920Z,8.35
2022-09-17T08:19:33.281Z,9.28
2022-09-17T08:22:03.823Z,9.10
2022-09-17T08:24:34.266Z,10.35
2022-09-17T08:27:05.384Z,6.87
2022-09-17T08:29:35.743Z,8.98
2022-09-17T08:32:06.053Z,7.17
2022-09-17T08:34:37.135Z,6.28
2022-09-17T08:37:07.593Z,8.13
2022-09-17T08:39:37.923Z,7.10
2022-09-17T08:42:15.375Z,9.68
2022-09-17T08:44:55.177Z,23.95
2022-09-17T08:47:38.752Z,10.08
2022-09-17T08:50:31.097Z,6.83
2022-09-17T08:53:34.929Z,7.92
2022-09-17T08:56:17.362Z,5.50
2022-09-17T08:58:59.408Z,6.92
2022-09-17T09:01:38.421Z,7.22
2022-09-17T09:04:33.108Z,9.30
2022-09-17T09:07:09.100Z,6.08
2022-09-17T09:09:42.530Z,11.00
2022-09-17T09:12:28.249Z,9.20
2022-09-17T09:15:05.550Z,8.88
2022-09-17T09:17:39.062Z,5.80
2022-09-17T09:20:15.110Z,7.67
2022-09-17T09:22:56.133Z,8.05
2022-09-17T09:25:29.513Z,9.05
2022-09-17T09:28:24.453Z,10.68
2022-09-17T09:31:20.182Z,8.60
2022-09-17T09:33:51.723Z,6.83
2022-09-17T09:36:22.287Z,8.65
2022-09-17T09:39:06.570Z,7.70
2022-09-17T09:41:53.771Z,5.60
2022-09-17T09:44:26.183Z,7.97
2022-09-17T09:47:17.460Z,7.17
2022-09-17T09:50:10.144Z,6.60
2022-09-17T09:52:49.685Z,5.95
2022-09-17T09:55:43.872Z,6.15
2022-09-17T09:58:40.106Z,8.83
2022-09-17T10:01:16.312Z,5.87
2022-09-17T10:03:47.490Z,8.08
2022-09-17T10:06:19.777Z,7.45
2022-09-17T10:09:02.295Z,4.78
2022-09-17T10:11:33.775Z,6.75
2022-09-17T10:14:25.432Z,10.05
2022-09-17T10:17:29.015Z,6.62
2022-09-17T10:20:10.077Z,5.83
2022-09-17T10:22:44.025Z,7.35
2022-09-17T10:25:31.955Z,8.40
2022-09-17T10:28:08.294Z,7.08
2022-09-17T10:30:38.714Z,5.22
2022-09-17T10:33:24.705Z,6.20
2022-09-17T10:36:01.437Z,10.78
2022-09-17T10:38:37.587Z,9.58
2022-09-17T10:41:22.715Z,7.92
2022-09-17T10:43:53.023Z,9.03
2022-09-17T10:46:29.041Z,6.03
2022-09-17T10:49:34.274Z,10.55
2022-09-17T10:52:12.899Z,6.75
2022-09-17T10:55:18.332Z,8.53
2022-09-17T10:58:10.141Z,5.70
2022-09-17T11:01:00.008Z,5.28
2022-09-17T11:03:51.275Z,6.83
2022-09-17T11:06:39.962Z,4.10
2022-09-17T11:09:37.280Z,5.75
2022-09-17T11:12:19.156Z,11.05
2022-09-17T11:14:58.556Z,8.38
2022-09-17T11:17:57.820Z,5.17
2022-09-17T11:20:37.159Z,6.10
2022-09-17T11:23:44.219Z,4.62
2022-09-17T11:26:32.994Z,4.08
2022-09-17T11:29:06.574Z,4.45
2022-09-17T11:31:41.439Z,4.25
2022-09-17T11:34:29.885Z,4.35
2022-09-17T11:37:21.241Z,4.70
2022-09-17T11:39:55.219Z,6.45
2022-09-17T11:42:48.521Z,3.10
2022-09-17T11:45:27.592Z,4.47
2022-09-17T11:48:17.078Z,4.65
2022-09-17T11:50:56.748Z,3.10
2022-09-17T11:53:30.127Z,6.10
2022-09-17T11:56:20.296Z,4.20
2022-09-17T11:59:05.726Z,4.37
2022-09-17T12:01:51.351Z,5.10
2022-09-17T12:04:24.799Z,3.95
2022-09-17T12:07:03.862Z,2.52
2022-09-17T12:09:37.873Z,4.55
2022-09-17T12:12:31.727Z,3.37
2022-09-17T12:15:04.641Z,2.98
2022-09-17T12:17:47.285Z,3.85
2022-09-17T12:20:26.500Z,2.58
2022-09-17T12:23:00.166Z,4.20
2022-09-17T12:25:33.600Z,2.10
2022-09-17T12:28:19.058Z,5.03
2022-09-17T12:30:58.832Z,5.20
2022-09-17T12:33:41.543Z,7.42
2022-09-17T12:36:15.023Z,2.55
2022-09-17T12:39:02.681Z,4.83
2022-09-17T12:42:01.916Z,3.77
2022-09-17T12:44:52.759Z,2.77
2022-09-17T12:47:59.548Z,6.00
2022-09-17T12:50:58.913Z,3.05
2022-09-17T12:53:35.189Z,6.22
2022-09-17T12:56:29.861Z,4.55
2022-09-17T12:59:09.332Z,3.27
2022-09-17T13:01:51.983Z,3.15
2022-09-17T13:05:00.066Z,3.12
2022-09-17T13:07:22.852Z,2.12
2022-09-17T13:10:23.644Z,3.37
2022-09-17T13:13:11.967Z,1.82
2022-09-17T13:15:48.290Z,2.10
2022-09-17T13:18:30.150Z,3.17
2022-09-17T13:21:06.755Z,4.85
2022-09-17T13:23:40.333Z,4.80
2022-09-17T13:26:15.178Z,3.33
2022-09-17T13:28:48.304Z,3.45
2022-09-17T13:31:36.743Z,1.90
2022-09-17T13:34:22.627Z,2.95
2022-09-17T13:37:06.698Z,4.83
2022-09-17T13:39:45.575Z,2.42
2022-09-17T13:42:26.534Z,2.98
2022-09-17T13:45:08.784Z,3.08
2022-09-17T13:47:41.311Z,4.65
2022-09-17T13:50:14.782Z,3.80
2022-09-17T13:52:51.020Z,3.42
2022-09-17T13:55:42.154Z,26.42
2022-09-17T13:58:31.927Z,4.40
2022-09-17T14:01:07.897Z,14.75
2022-09-17T14:03:44.622Z,6.10
2022-09-17T14:06:19.919Z,7.78
2022-09-17T14:08:53.616Z,7.20
2022-09-17T14:11:28.361Z,5.20
2022-09-17T14:14:09.072Z,3.37
2022-09-17T14:16:50.088Z,4.20
2022-09-17T14:19:26.438Z,5.78
2022-09-17T14:22:08.718Z,4.45
2022-09-17T14:24:49.098Z,4.37
2022-09-17T14:27:25.163Z,4.40
2022-09-17T14:30:16.926Z,5.00
2022-09-17T14:33:11.268Z,3.67
2022-09-17T14:35:44.599Z,2.85
2022-09-17T14:38:35.855Z,3.87
2022-09-17T14:41:24.208Z,3.42
2022-09-17T14:44:11.304Z,3.08
2022-09-17T14:46:49.689Z,2.72
2022-09-17T14:49:22.917Z,2.83
2022-09-17T14:51:54.952Z,2.17
2022-09-17T14:54:35.773Z,1.92
2022-09-17T14:57:23.525Z,2.58
2022-09-17T14:59:58.571Z,1.85
2022-09-17T15:02:46.224Z,1.87
2022-09-17T15:05:27.011Z,2.00
2022-09-17T15:08:15.899Z,0.88
2022-09-17T15:11:01.478Z,1.32
2022-09-17T15:13:33.661Z,1.80
2022-09-17T15:16:29.869Z,1.15
2022-09-17T15:19:03.553Z,1.25
2022-09-17T15:21:39.592Z,1.52
2022-09-17T15:24:25.050Z,1.67
2022-09-17T15:26:59.021Z,2.05
2022-09-17T15:29:31.457Z,1.67
2022-09-17T15:32:04.439Z,1.22
2022-09-17T15:34:34.741Z,1.30
2022-09-17T15:37:08.100Z,1.85
2022-09-17T15:39:41.570Z,1.32
2022-09-17T15:42:23.963Z,1.15
2022-09-17T15:44:56.378Z,2.25
2022-09-17T15:47:38.886Z,2.65
2022-09-17T15:50:18.336Z,4.30
2022-09-17T15:52:49.777Z,2.25
2022-09-17T15:55:38.596Z,1.90
2022-09-17T15:58:30.294Z,2.58
2022-09-17T16:01:13.136Z,2.65
2022-09-17T16:03:46.913Z,2.83
2022-09-17T16:06:24.941Z,2.25
2022-09-17T16:08:57.404Z,3.12
2022-09-17T16:11:30.611Z,2.20
2022-09-17T16:14:02.350Z,2.35
2022-09-17T16:16:35.444Z,2.62
2022-09-17T16:19:06.576Z,4.25
2022-09-17T16:21:37.078Z,3.12
2022-09-17T16:24:07.762Z,3.08
2022-09-17T16:26:38.329Z,2.15
2022-09-17T16:29:21.175Z,1.90
2022-09-17T16:31:52.745Z,2.25
2022-09-17T16:34:23.138Z,0.90
2022-09-17T16:36:53.531Z,2.98
2022-09-17T16:39:23.983Z,4.15
2022-09-17T16:41:54.515Z,3.00
2022-09-17T16:44:24.891Z,4.12
2022-09-17T16:46:55.308Z,1.30
2022-09-17T16:49:27.331Z,2.08
2022-09-17T16:51:57.663Z,1.72
2022-09-17T16:54:28.392Z,1.80
2022-09-17T16:56:58.944Z,1.27
2022-09-17T16:59:29.398Z,1.32
2022-09-17T17:02:00.169Z,3.17
2022-09-17T17:04:30.478Z,2.80
2022-09-17T17:07:01.233Z,2.50
2022-09-17T17:09:31.636Z,2.22
2022-09-17T17:12:02.125Z,1.50
2022-09-17T17:14:32.703Z,2.47
2022-09-17T17:17:03.365Z,2.30
2022-09-17T17:19:36.657Z,2.67
2022-09-17T17:22:08.510Z,2.60
2022-09-17T17:24:39.395Z,3.07
2022-09-17T17:27:09.799Z,3.55
2022-09-17T17:29:40.675Z,2.27
2022-09-17T17:32:12.632Z,4.97
2022-09-17T17:34:42.945Z,3.72
2022-09-17T17:37:14.235Z,3.45
2022-09-17T17:39:44.557Z,1.05
2022-09-17T17:42:15.032Z,2.17
2022-09-17T17:44:45.419Z,3.35
2022-09-17T17:47:15.871Z,1.98
2022-09-17T17:49:46.206Z,2.30
2022-09-17T17:52:16.692Z,3.37
2022-09-17T17:54:46.990Z,2.05
2022-09-17T17:57:17.374Z,2.47
2022-09-17T17:59:47.827Z,3.23
2022-09-17T18:02:18.253Z,2.85
2022-09-17T18:04:48.736Z,2.92
2022-09-17T18:07:19.221Z,5.15
2022-09-17T18:09:49.597Z,3.70
2022-09-17T18:12:23.748Z,5.03
2022-09-17T18:14:52.217Z,3.95
2022-09-17T18:17:22.583Z,3.20
2022-09-17T18:19:54.563Z,2.47
2022-09-17T18:22:25.334Z,1.90
2022-09-17T18:24:55.646Z,3.60
2022-09-17T18:27:26.066Z,4.53
2022-09-17T18:29:56.990Z,6.57
2022-09-17T18:32:27.755Z,5.13
2022-09-17T18:34:58.277Z,3.33
2022-09-17T18:37:29.719Z,2.27
2022-09-17T18:40:01.094Z,1.85
2022-09-17T18:42:31.528Z,3.03
2022-09-17T18:45:02.079Z,3.53
2022-09-17T18:47:32.486Z,2.80
2022-09-17T18:50:02.869Z,5.25
2022-09-17T18:52:33.342Z,4.90
2022-09-17T18:55:03.644Z,2.43
2022-09-17T18:57:34.111Z,10.47
2022-09-17T19:00:06.603Z,5.20
2022-09-17T19:02:37.090Z,1.87
2022-09-17T19:05:08.264Z,3.10
2022-09-17T19:07:38.700Z,2.33
2022-09-17T19:10:09.712Z,2.15
2022-09-17T19:12:40.334Z,5.57
2022-09-17T19:15:11.632Z,2.80
2022-09-17T19:17:42.034Z,3.40
2022-09-17T19:20:12.334Z,3.97
2022-09-17T19:22:42.680Z,4.33
2022-09-17T19:25:13.423Z,2.75
2022-09-17T19:27:44.202Z,3.77
2022-09-17T19:30:14.782Z,2.83
2022-09-17T19:32:48.278Z,2.93
2022-09-17T19:35:18.950Z,2.80
2022-09-17T19:37:50.608Z,3.30
2022-09-17T19:40:21.529Z,2.83
2022-09-17T19:42:55.999Z,2.27
2022-09-17T19:45:27.229Z,3.92
2022-09-17T19:48:01.676Z,5.13
2022-09-17T19:50:32.033Z,4.33
2022-09-17T19:53:02.406Z,4.60
2022-09-17T19:55:32.886Z,3.30
2022-09-17T19:58:04.497Z,2.50
2022-09-17T20:00:36.963Z,3.98
2022-09-17T20:03:08.714Z,3.20
2022-09-17T20:05:39.171Z,4.07
2022-09-17T20:08:09.640Z,5.12
2022-09-17T20:10:40.028Z,4.28
2022-09-17T20:13:10.425Z,3.47
2022-09-17T20:15:40.926Z,3.73
2022-09-17T20:18:11.364Z,5.37
2022-09-17T20:20:42.705Z,2.13
2022-09-17T20:23:13.113Z,4.65
2022-09-17T20:25:44.573Z,3.23
2022-09-17T20:28:15.246Z,2.43
2022-09-17T20:30:46.289Z,2.62
2022-09-17T20:33:19.932Z,4.03
2022-09-17T20:35:48.854Z,3.43
2022-09-17T20:39:07.113Z,4.73
2022-09-17T20:40:51.274Z,3.83
2022-09-17T20:43:21.770Z,4.22
2022-09-17T20:45:56.353Z,3.63
2022-09-17T20:48:26.750Z,5.30
2022-09-17T20:51:04.060Z,3.40
2022-09-17T20:53:36.293Z,2.50
2022-09-17T20:56:09.363Z,3.70
2022-09-17T20:58:52.386Z,3.63
2022-09-17T21:01:30.076Z,3.80
2022-09-17T21:04:01.861Z,6.85
2022-09-17T21:06:34.766Z,6.23
2022-09-17T21:09:10.616Z,3.60
2022-09-17T21:11:42.401Z,5.57
2022-09-17T21:14:14.678Z,3.57
2022-09-17T21:16:46.409Z,4.90
2022-09-17T21:19:17.095Z,3.70
2022-09-17T21:21:49.393Z,3.73
2022-09-17T21:24:19.681Z,5.83
2022-09-17T21:26:51.816Z,5.97
2022-09-17T21:29:22.590Z,6.08
2022-09-17T21:31:54.231Z,5.00
2022-09-17T21:34:24.734Z,6.33
2022-09-17T21:36:55.184Z,4.90
2022-09-17T21:39:25.911Z,3.50
2022-09-17T21:41:56.381Z,5.55
2022-09-17T21:44:27.236Z,4.70
2022-09-17T21:46:57.938Z,4.75
2022-09-17T21:49:28.267Z,5.28
2022-09-17T21:51:58.586Z,3.30
2022-09-17T21:54:28.989Z,4.30
2022-09-17T21:56:59.943Z,6.23
2022-09-17T21:59:30.274Z,3.30
2022-09-17T22:02:00.928Z,5.25
2022-09-17T22:04:31.533Z,5.08
2022-09-17T22:07:02.320Z,4.03
2022-09-17T22:09:32.634Z,4.27
2022-09-17T22:12:04.844Z,3.60
2022-09-17T22:14:35.306Z,4.00
2022-09-17T22:17:06.860Z,6.90
2022-09-17T22:19:37.158Z,4.78
2022-09-17T22:22:07.488Z,7.25
2022-09-17T22:24:38.462Z,4.77
2022-09-17T22:27:08.851Z,5.15
2022-09-17T22:29:39.238Z,3.35
2022-09-17T22:32:09.612Z,3.72
2022-09-17T22:34:46.396Z,2.87
2022-09-17T22:37:12.115Z,5.73
2022-09-17T22:39:42.823Z,3.10
2022-09-17T22:42:14.845Z,6.45
2022-09-17T22:44:46.938Z,5.63
2022-09-17T22:47:17.451Z,4.75
2022-09-17T22:49:47.714Z,3.10
2022-09-17T22:52:18.128Z,4.37
2022-09-17T22:54:48.546Z,3.85
2022-09-17T22:57:19.084Z,3.85
2022-09-17T22:59:49.439Z,3.10
2022-09-17T23:02:19.868Z,3.90
2022-09-17T23:04:50.898Z,2.70
2022-09-17T23:07:21.318Z,4.30
2022-09-17T23:09:52.093Z,3.25
2022-09-17T23:12:22.615Z,3.75
2022-09-17T23:14:52.948Z,3.73
2022-09-17T23:17:28.652Z,4.60
2022-09-17T23:19:55.656Z,6.15
2022-09-17T23:22:26.713Z,3.70
2022-09-17T23:24:57.272Z,4.17
2022-09-17T23:27:27.698Z,3.17
2022-09-17T23:29:58.142Z,3.37
2022-09-17T23:32:28.545Z,2.72
2022-09-17T23:34:58.979Z,4.60
2022-09-17T23:37:30.029Z,3.43
2022-09-17T23:40:00.395Z,4.07
2022-09-17T23:42:32.362Z,3.35
2022-09-17T23:45:03.252Z,2.40
2022-09-17T23:47:33.630Z,2.80
2022-09-17T23:50:05.029Z,4.00
2022-09-17T23:52:35.410Z,3.87
2022-09-17T23:55:07.337Z,3.55
2022-09-17T23:57:37.847Z,3.17
